sensor_id;sensor_type;location;lat;lon;timestamp;temperature;humidity
782;DHT22;374;52.568;13.402;2023-02-12T00:01:30;7.60;99.90
782;DHT22;374;52.568;13.402;2023-02-12T00:03:56;7.60;99.90
782;DHT22;374;52.568;13.402;2023-02-12T00:06:22;7.60;99.90
782;DHT22;374;52.568;13.402;2023-02-12T00:08:49;7.60;99.90
782;DHT22;374;52.568;13.402;2023-02-12T00:11:17;7.60;99.90
782;DHT22;374;52.568;13.402;2023-02-12T00:13:43;7.60;99.90
782;DHT22;374;52.568;13.402;2023-02-12T00:16:17;7.60;99.90
782;DHT22;374;52.568;13.402;2023-02-12T00:18:43;7.60;99.90
782;DHT22;374;52.568;13.402;2023-02-12T00:21:09;7.60;99.90
782;DHT22;374;52.568;13.402;2023-02-12T00:23:35;7.60;99.90
782;DHT22;374;52.568;13.402;2023-02-12T00:26:06;7.60;99.90
782;DHT22;374;52.568;13.402;2023-02-12T00:28:32;7.60;99.90
782;DHT22;374;52.568;13.402;2023-02-12T00:30:57;7.60;99.90
782;DHT22;374;52.568;13.402;2023-02-12T00:33:22;7.60;99.90
782;DHT22;374;52.568;13.402;2023-02-12T00:35:55;7.60;99.90
782;DHT22;374;52.568;13.402;2023-02-12T00:38:21;7.60;99.90
782;DHT22;374;52.568;13.402;2023-02-12T00:41:03;7.60;99.90
782;DHT22;374;52.568;13.402;2023-02-12T00:43:28;7.50;99.90
782;DHT22;374;52.568;13.402;2023-02-12T00:45:54;7.50;99.90
782;DHT22;374;52.568;13.402;2023-02-12T00:48:19;7.50;99.90
782;DHT22;374;52.568;13.402;2023-02-12T00:50:46;7.50;99.90
782;DHT22;374;52.568;13.402;2023-02-12T00:53:13;7.50;99.90
782;DHT22;374;52.568;13.402;2023-02-12T00:55:39;7.50;99.90
782;DHT22;374;52.568;13.402;2023-02-12T00:58:05;7.50;99.90
782;DHT22;374;52.568;13.402;2023-02-12T01:00:30;7.50;99.90
782;DHT22;374;52.568;13.402;2023-02-12T01:02:56;7.50;99.90
782;DHT22;374;52.568;13.402;2023-02-12T01:05:21;7.50;99.90
782;DHT22;374;52.568;13.402;2023-02-12T01:07:50;7.50;99.90
782;DHT22;374;52.568;13.402;2023-02-12T01:10:16;7.50;99.90
782;DHT22;374;52.568;13.402;2023-02-12T01:12:42;7.50;99.90
782;DHT22;374;52.568;13.402;2023-02-12T01:15:08;7.50;99.90
782;DHT22;374;52.568;13.402;2023-02-12T01:17:36;7.50;99.90
782;DHT22;374;52.568;13.402;2023-02-12T01:20:04;7.50;99.90
782;DHT22;374;52.568;13.402;2023-02-12T01:22:33;7.50;99.90
782;DHT22;374;52.568;13.402;2023-02-12T01:24:59;7.50;99.90
782;DHT22;374;52.568;13.402;2023-02-12T01:27:24;7.50;99.90
782;DHT22;374;52.568;13.402;2023-02-12T01:29:50;7.50;99.90
782;DHT22;374;52.568;13.402;2023-02-12T01:32:15;7.50;99.90
782;DHT22;374;52.568;13.402;2023-02-12T01:34:41;7.50;99.90
782;DHT22;374;52.568;13.402;2023-02-12T01:37:06;7.40;99.90
782;DHT22;374;52.568;13.402;2023-02-12T01:39:33;7.40;99.90
782;DHT22;374;52.568;13.402;2023-02-12T01:41:58;7.40;99.90
782;DHT22;374;52.568;13.402;2023-02-12T01:44:28;7.40;99.90
782;DHT22;374;52.568;13.402;2023-02-12T01:46:57;7.40;99.90
782;DHT22;374;52.568;13.402;2023-02-12T01:49:35;7.40;99.90
782;DHT22;374;52.568;13.402;2023-02-12T01:52:19;7.40;99.90
782;DHT22;374;52.568;13.402;2023-02-12T01:54:49;7.40;99.90
782;DHT22;374;52.568;13.402;2023-02-12T01:57:15;7.40;99.90
782;DHT22;374;52.568;13.402;2023-02-12T01:59:43;7.40;99.90
782;DHT22;374;52.568;13.402;2023-02-12T02:02:09;7.40;99.90
782;DHT22;374;52.568;13.402;2023-02-12T02:04:49;7.30;99.90
782;DHT22;374;52.568;13.402;2023-02-12T02:07:14;7.40;99.90
782;DHT22;374;52.568;13.402;2023-02-12T02:09:40;7.40;99.90
782;DHT22;374;52.568;13.402;2023-02-12T02:12:06;7.40;99.90
782;DHT22;374;52.568;13.402;2023-02-12T02:14:54;7.40;99.90
782;DHT22;374;52.568;13.402;2023-02-12T02:29:10;7.40;99.90
782;DHT22;374;52.568;13.402;2023-02-12T02:32:01;7.40;99.90
782;DHT22;374;52.568;13.402;2023-02-12T02:34:46;7.40;99.90
782;DHT22;374;52.568;13.402;2023-02-12T02:37:31;7.40;99.90
782;DHT22;374;52.568;13.402;2023-02-12T02:40:12;7.40;99.90
782;DHT22;374;52.568;13.402;2023-02-12T02:42:52;7.40;99.90
782;DHT22;374;52.568;13.402;2023-02-12T02:47:59;7.40;99.90
782;DHT22;374;52.568;13.402;2023-02-12T02:50:28;7.40;99.90
782;DHT22;374;52.568;13.402;2023-02-12T02:53:05;7.30;99.90
782;DHT22;374;52.568;13.402;2023-02-12T02:55:37;7.30;99.90
782;DHT22;374;52.568;13.402;2023-02-12T02:58:20;7.30;99.90
782;DHT22;374;52.568;13.402;2023-02-12T03:01:03;7.30;99.90
782;DHT22;374;52.568;13.402;2023-02-12T03:03:35;7.30;99.90
782;DHT22;374;52.568;13.402;2023-02-12T03:06:26;7.30;99.90
782;DHT22;374;52.568;13.402;2023-02-12T03:09:02;7.30;99.90
782;DHT22;374;52.568;13.402;2023-02-12T03:11:32;7.30;99.90
782;DHT22;374;52.568;13.402;2023-02-12T03:16:32;7.30;99.90
782;DHT22;374;52.568;13.402;2023-02-12T03:19:13;7.30;99.90
782;DHT22;374;52.568;13.402;2023-02-12T03:21:48;7.30;99.90
782;DHT22;374;52.568;13.402;2023-02-12T03:24:22;7.40;99.90
782;DHT22;374;52.568;13.402;2023-02-12T03:26:53;7.30;99.90
782;DHT22;374;52.568;13.402;2023-02-12T03:29:21;7.40;99.90
782;DHT22;374;52.568;13.402;2023-02-12T03:32:09;7.30;99.90
782;DHT22;374;52.568;13.402;2023-02-12T03:37:26;7.30;99.90
782;DHT22;374;52.568;13.402;2023-02-12T03:39:57;7.30;99.90
782;DHT22;374;52.568;13.402;2023-02-12T03:42:42;7.40;99.90
782;DHT22;374;52.568;13.402;2023-02-12T03:45:16;7.30;99.90
782;DHT22;374;52.568;13.402;2023-02-12T03:50:24;7.30;99.90
782;DHT22;374;52.568;13.402;2023-02-12T03:52:51;7.30;99.90
782;DHT22;374;52.568;13.402;2023-02-12T03:55:17;7.30;99.90
782;DHT22;374;52.568;13.402;2023-02-12T03:57:47;7.40;99.90
782;DHT22;374;52.568;13.402;2023-02-12T04:00:22;7.30;99.90
782;DHT22;374;52.568;13.402;2023-02-12T04:02:48;7.30;99.90
782;DHT22;374;52.568;13.402;2023-02-12T04:05:26;7.40;99.90
782;DHT22;374;52.568;13.402;2023-02-12T04:07:53;7.30;99.90
782;DHT22;374;52.568;13.402;2023-02-12T04:16:32;7.30;99.90
782;DHT22;374;52.568;13.402;2023-02-12T04:18:59;7.30;99.90
782;DHT22;374;52.568;13.402;2023-02-12T04:24:58;7.30;99.90
782;DHT22;374;52.568;13.402;2023-02-12T04:27:15;7.30;99.90
782;DHT22;374;52.568;13.402;2023-02-12T04:30:06;7.30;99.90
782;DHT22;374;52.568;13.402;2023-02-12T04:32:46;7.30;99.90
782;DHT22;374;52.568;13.402;2023-02-12T04:35:22;7.30;99.90
782;DHT22;374;52.568;13.402;2023-02-12T04:37:56;7.30;99.90
782;DHT22;374;52.568;13.402;2023-02-12T04:40:25;7.30;99.90
782;DHT22;374;52.568;13.402;2023-02-12T04:42:51;7.30;99.90
782;DHT22;374;52.568;13.402;2023-02-12T04:45:25;7.30;99.90
782;DHT22;374;52.568;13.402;2023-02-12T04:47:51;7.30;99.90
782;DHT22;374;52.568;13.402;2023-02-12T04:50:17;7.30;99.90
782;DHT22;374;52.568;13.402;2023-02-12T04:52:43;7.30;99.90
782;DHT22;374;52.568;13.402;2023-02-12T04:55:09;7.30;99.90
782;DHT22;374;52.568;13.402;2023-02-12T04:57:34;7.30;99.90
782;DHT22;374;52.568;13.402;2023-02-12T05:00:00;7.20;99.90
782;DHT22;374;52.568;13.402;2023-02-12T05:02:25;7.30;99.90
782;DHT22;374;52.568;13.402;2023-02-12T05:04:51;7.30;99.90
782;DHT22;374;52.568;13.402;2023-02-12T05:07:16;7.30;99.90
782;DHT22;374;52.568;13.402;2023-02-12T05:09:42;7.30;99.90
782;DHT22;374;52.568;13.402;2023-02-12T05:12:07;7.30;99.90
782;DHT22;374;52.568;13.402;2023-02-12T05:14:33;7.30;99.90
782;DHT22;374;52.568;13.402;2023-02-12T05:16:59;7.30;99.90
782;DHT22;374;52.568;13.402;2023-02-12T05:19:24;7.30;99.90
782;DHT22;374;52.568;13.402;2023-02-12T05:21:50;7.30;99.90
782;DHT22;374;52.568;13.402;2023-02-12T05:24:16;7.30;99.90
782;DHT22;374;52.568;13.402;2023-02-12T05:26:41;7.30;99.90
782;DHT22;374;52.568;13.402;2023-02-12T05:29:07;7.30;99.90
782;DHT22;374;52.568;13.402;2023-02-12T05:31:32;7.30;99.90
782;DHT22;374;52.568;13.402;2023-02-12T05:33:58;7.30;99.90
782;DHT22;374;52.568;13.402;2023-02-12T05:36:24;7.30;99.90
782;DHT22;374;52.568;13.402;2023-02-12T05:38:51;7.30;99.90
782;DHT22;374;52.568;13.402;2023-02-12T05:41:22;7.30;99.90
782;DHT22;374;52.568;13.402;2023-02-12T05:43:49;7.30;99.90
782;DHT22;374;52.568;13.402;2023-02-12T05:46:15;7.30;99.90
782;DHT22;374;52.568;13.402;2023-02-12T05:48:40;7.30;99.90
782;DHT22;374;52.568;13.402;2023-02-12T05:51:12;7.30;99.90
782;DHT22;374;52.568;13.402;2023-02-12T05:53:39;7.30;99.90
782;DHT22;374;52.568;13.402;2023-02-12T05:58:35;7.30;99.90
782;DHT22;374;52.568;13.402;2023-02-12T06:01:01;7.20;99.90
782;DHT22;374;52.568;13.402;2023-02-12T06:03:26;7.20;99.90
782;DHT22;374;52.568;13.402;2023-02-12T06:05:52;7.20;99.90
782;DHT22;374;52.568;13.402;2023-02-12T06:08:17;7.20;99.90
782;DHT22;374;52.568;13.402;2023-02-12T06:10:43;7.20;99.90
782;DHT22;374;52.568;13.402;2023-02-12T06:13:08;7.20;99.90
782;DHT22;374;52.568;13.402;2023-02-12T06:15:37;7.20;99.90
782;DHT22;374;52.568;13.402;2023-02-12T06:18:03;7.20;99.90
782;DHT22;374;52.568;13.402;2023-02-12T06:20:28;7.20;99.90
782;DHT22;374;52.568;13.402;2023-02-12T06:22:54;7.20;99.90
782;DHT22;374;52.568;13.402;2023-02-12T06:25:19;7.20;99.90
782;DHT22;374;52.568;13.402;2023-02-12T06:27:45;7.20;99.90
782;DHT22;374;52.568;13.402;2023-02-12T06:30:11;7.20;99.90
782;DHT22;374;52.568;13.402;2023-02-12T06:32:36;7.20;99.90
782;DHT22;374;52.568;13.402;2023-02-12T06:35:02;7.20;99.90
782;DHT22;374;52.568;13.402;2023-02-12T06:37:27;7.20;99.90
782;DHT22;374;52.568;13.402;2023-02-12T06:39:53;7.20;99.90
782;DHT22;374;52.568;13.402;2023-02-12T06:42:18;7.20;99.90
782;DHT22;374;52.568;13.402;2023-02-12T06:44:44;7.20;99.90
782;DHT22;374;52.568;13.402;2023-02-12T06:47:10;7.20;99.90
782;DHT22;374;52.568;13.402;2023-02-12T06:49:36;7.20;99.90
782;DHT22;374;52.568;13.402;2023-02-12T06:52:02;7.20;99.90
782;DHT22;374;52.568;13.402;2023-02-12T06:54:27;7.20;99.90
782;DHT22;374;52.568;13.402;2023-02-12T06:56:53;7.20;99.90
782;DHT22;374;52.568;13.402;2023-02-12T06:59:18;7.20;99.90
782;DHT22;374;52.568;13.402;2023-02-12T07:01:44;7.20;99.90
782;DHT22;374;52.568;13.402;2023-02-12T07:04:10;7.20;99.90
782;DHT22;374;52.568;13.402;2023-02-12T07:06:35;7.20;99.90
782;DHT22;374;52.568;13.402;2023-02-12T07:09:02;7.20;99.90
782;DHT22;374;52.568;13.402;2023-02-12T07:11:30;7.20;99.90
782;DHT22;374;52.568;13.402;2023-02-12T07:13:56;7.30;99.90
782;DHT22;374;52.568;13.402;2023-02-12T07:16:22;7.20;99.90
782;DHT22;374;52.568;13.402;2023-02-12T07:18:48;7.20;99.90
782;DHT22;374;52.568;13.402;2023-02-12T07:21:15;7.20;99.90
782;DHT22;374;52.568;13.402;2023-02-12T07:23:41;7.20;99.90
782;DHT22;374;52.568;13.402;2023-02-12T07:26:11;7.20;99.90
782;DHT22;374;52.568;13.402;2023-02-12T07:28:37;7.20;99.90
782;DHT22;374;52.568;13.402;2023-02-12T07:31:15;7.20;99.90
782;DHT22;374;52.568;13.402;2023-02-12T07:33:41;7.30;99.90
782;DHT22;374;52.568;13.402;2023-02-12T07:36:10;7.30;99.90
782;DHT22;374;52.568;13.402;2023-02-12T07:38:37;7.30;99.90
782;DHT22;374;52.568;13.402;2023-02-12T07:41:07;7.30;99.90
782;DHT22;374;52.568;13.402;2023-02-12T07:43:33;7.30;99.90
782;DHT22;374;52.568;13.402;2023-02-12T07:46:16;7.30;99.90
782;DHT22;374;52.568;13.402;2023-02-12T07:48:42;7.30;99.90
782;DHT22;374;52.568;13.402;2023-02-12T07:51:12;7.30;99.90
782;DHT22;374;52.568;13.402;2023-02-12T07:53:38;7.30;99.90
782;DHT22;374;52.568;13.402;2023-02-12T07:58:34;7.30;99.90
782;DHT22;374;52.568;13.402;2023-02-12T08:01:20;7.30;99.90
782;DHT22;374;52.568;13.402;2023-02-12T08:03:47;7.40;99.90
782;DHT22;374;52.568;13.402;2023-02-12T08:06:16;7.40;99.90
782;DHT22;374;52.568;13.402;2023-02-12T08:08:42;7.40;99.90
782;DHT22;374;52.568;13.402;2023-02-12T08:11:09;7.40;99.90
782;DHT22;374;52.568;13.402;2023-02-12T08:13:36;7.40;99.90
782;DHT22;374;52.568;13.402;2023-02-12T08:16:03;7.40;99.90
782;DHT22;374;52.568;13.402;2023-02-12T08:18:31;7.40;99.90
782;DHT22;374;52.568;13.402;2023-02-12T08:21:17;7.50;99.90
782;DHT22;374;52.568;13.402;2023-02-12T08:23:44;7.50;99.90
782;DHT22;374;52.568;13.402;2023-02-12T08:26:13;7.50;99.90
782;DHT22;374;52.568;13.402;2023-02-12T08:28:45;7.50;99.90
782;DHT22;374;52.568;13.402;2023-02-12T08:31:22;7.50;99.90
782;DHT22;374;52.568;13.402;2023-02-12T08:33:49;7.50;99.90
782;DHT22;374;52.568;13.402;2023-02-12T08:36:18;7.50;99.90
782;DHT22;374;52.568;13.402;2023-02-12T08:38:45;7.50;99.90
782;DHT22;374;52.568;13.402;2023-02-12T08:41:13;7.60;99.90
782;DHT22;374;52.568;13.402;2023-02-12T08:43:40;7.50;99.90
782;DHT22;374;52.568;13.402;2023-02-12T08:46:08;7.60;99.90
782;DHT22;374;52.568;13.402;2023-02-12T08:48:34;7.60;99.90
782;DHT22;374;52.568;13.402;2023-02-12T08:53:30;7.60;99.90
782;DHT22;374;52.568;13.402;2023-02-12T08:55:58;7.60;99.90
782;DHT22;374;52.568;13.402;2023-02-12T08:58:24;7.60;99.90
782;DHT22;374;52.568;13.402;2023-02-12T09:00:49;7.60;99.90
782;DHT22;374;52.568;13.402;2023-02-12T09:03:15;7.60;99.90
782;DHT22;374;52.568;13.402;2023-02-12T09:05:41;7.70;99.90
782;DHT22;374;52.568;13.402;2023-02-12T09:08:06;7.70;99.90
782;DHT22;374;52.568;13.402;2023-02-12T09:10:32;7.70;99.90
782;DHT22;374;52.568;13.402;2023-02-12T09:12:58;7.70;99.90
782;DHT22;374;52.568;13.402;2023-02-12T09:15:24;7.70;99.90
782;DHT22;374;52.568;13.402;2023-02-12T09:17:49;7.70;99.90
782;DHT22;374;52.568;13.402;2023-02-12T09:20:15;7.70;99.90
782;DHT22;374;52.568;13.402;2023-02-12T09:22:40;7.70;99.90
782;DHT22;374;52.568;13.402;2023-02-12T09:25:07;7.80;99.90
782;DHT22;374;52.568;13.402;2023-02-12T09:27:32;7.80;99.90
782;DHT22;374;52.568;13.402;2023-02-12T09:29:58;7.80;99.90
782;DHT22;374;52.568;13.402;2023-02-12T09:32:23;7.80;99.90
782;DHT22;374;52.568;13.402;2023-02-12T09:34:49;7.90;99.90
782;DHT22;374;52.568;13.402;2023-02-12T09:37:14;7.90;99.90
782;DHT22;374;52.568;13.402;2023-02-12T09:39:39;7.90;99.90
782;DHT22;374;52.568;13.402;2023-02-12T09:45:31;7.90;99.90
782;DHT22;374;52.568;13.402;2023-02-12T09:50:55;8.00;99.90
782;DHT22;374;52.568;13.402;2023-02-12T09:53:27;8.00;99.90
782;DHT22;374;52.568;13.402;2023-02-12T09:55:53;8.00;99.90
782;DHT22;374;52.568;13.402;2023-02-12T09:58:51;8.00;99.90
782;DHT22;374;52.568;13.402;2023-02-12T10:01:19;8.00;99.90
782;DHT22;374;52.568;13.402;2023-02-12T10:03:47;8.00;99.90
782;DHT22;374;52.568;13.402;2023-02-12T10:06:25;8.00;99.90
782;DHT22;374;52.568;13.402;2023-02-12T10:09:30;8.10;99.90
782;DHT22;374;52.568;13.402;2023-02-12T10:12:19;8.10;99.90
782;DHT22;374;52.568;13.402;2023-02-12T10:26:47;8.20;99.90
782;DHT22;374;52.568;13.402;2023-02-12T10:29:22;8.30;99.90
782;DHT22;374;52.568;13.402;2023-02-12T10:32:01;8.30;99.90
782;DHT22;374;52.568;13.402;2023-02-12T10:34:33;8.30;99.90
782;DHT22;374;52.568;13.402;2023-02-12T10:37:04;8.20;99.90
782;DHT22;374;52.568;13.402;2023-02-12T10:39:40;8.20;99.90
782;DHT22;374;52.568;13.402;2023-02-12T10:42:15;8.30;99.90
782;DHT22;374;52.568;13.402;2023-02-12T10:44:43;8.30;99.90
782;DHT22;374;52.568;13.402;2023-02-12T10:47:19;8.30;99.90
782;DHT22;374;52.568;13.402;2023-02-12T10:49:57;8.30;99.90
782;DHT22;374;52.568;13.402;2023-02-12T10:54:48;8.30;99.90
782;DHT22;374;52.568;13.402;2023-02-12T10:57:29;8.30;99.90
782;DHT22;374;52.568;13.402;2023-02-12T11:02:38;8.30;99.90
782;DHT22;374;52.568;13.402;2023-02-12T11:05:23;8.30;99.90
782;DHT22;374;52.568;13.402;2023-02-12T11:07:49;8.30;99.90
782;DHT22;374;52.568;13.402;2023-02-12T11:10:30;8.30;99.90
782;DHT22;374;52.568;13.402;2023-02-12T11:12:59;8.30;99.90
782;DHT22;374;52.568;13.402;2023-02-12T11:15:31;8.30;99.90
782;DHT22;374;52.568;13.402;2023-02-12T11:18:01;8.30;99.90
782;DHT22;374;52.568;13.402;2023-02-12T11:20:39;8.30;99.90
782;DHT22;374;52.568;13.402;2023-02-12T11:23:26;8.30;99.90
782;DHT22;374;52.568;13.402;2023-02-12T11:26:05;8.30;99.90
782;DHT22;374;52.568;13.402;2023-02-12T11:28:34;8.30;99.90
782;DHT22;374;52.568;13.402;2023-02-12T11:31:20;8.30;99.90
782;DHT22;374;52.568;13.402;2023-02-12T11:33:46;8.30;99.90
782;DHT22;374;52.568;13.402;2023-02-12T11:36:35;8.30;99.90
782;DHT22;374;52.568;13.402;2023-02-12T11:39:04;8.30;99.90
782;DHT22;374;52.568;13.402;2023-02-12T11:41:37;8.30;99.90
782;DHT22;374;52.568;13.402;2023-02-12T11:44:19;8.30;99.90
782;DHT22;374;52.568;13.402;2023-02-12T11:46:53;8.40;99.90
782;DHT22;374;52.568;13.402;2023-02-12T11:49:24;8.40;99.90
782;DHT22;374;52.568;13.402;2023-02-12T11:51:51;8.40;99.90
782;DHT22;374;52.568;13.402;2023-02-12T11:54:21;8.40;99.90
782;DHT22;374;52.568;13.402;2023-02-12T11:56:49;8.40;99.90
782;DHT22;374;52.568;13.402;2023-02-12T11:59:32;8.40;99.90
782;DHT22;374;52.568;13.402;2023-02-12T12:02:22;8.40;99.90
782;DHT22;374;52.568;13.402;2023-02-12T12:04:51;8.40;99.90
782;DHT22;374;52.568;13.402;2023-02-12T12:07:24;8.40;99.90
782;DHT22;374;52.568;13.402;2023-02-12T12:10:06;8.40;99.90
782;DHT22;374;52.568;13.402;2023-02-12T12:12:50;8.40;99.90
782;DHT22;374;52.568;13.402;2023-02-12T12:15:19;8.40;99.90
782;DHT22;374;52.568;13.402;2023-02-12T12:18:08;8.40;99.90
782;DHT22;374;52.568;13.402;2023-02-12T12:21:06;8.40;99.90
782;DHT22;374;52.568;13.402;2023-02-12T12:23:45;8.40;99.90
782;DHT22;374;52.568;13.402;2023-02-12T12:26:21;8.50;99.90
782;DHT22;374;52.568;13.402;2023-02-12T12:29:02;8.50;99.90
782;DHT22;374;52.568;13.402;2023-02-12T12:31:40;8.50;99.90
782;DHT22;374;52.568;13.402;2023-02-12T12:34:12;8.60;99.90
782;DHT22;374;52.568;13.402;2023-02-12T12:37:00;8.60;99.90
782;DHT22;374;52.568;13.402;2023-02-12T12:48:13;8.60;99.90
782;DHT22;374;52.568;13.402;2023-02-12T12:56:27;8.60;99.90
782;DHT22;374;52.568;13.402;2023-02-12T12:59:26;8.60;99.90
782;DHT22;374;52.568;13.402;2023-02-12T13:07:54;8.70;99.90
782;DHT22;374;52.568;13.402;2023-02-12T13:10:45;8.70;99.90
782;DHT22;374;52.568;13.402;2023-02-12T13:13:28;8.80;99.90
782;DHT22;374;52.568;13.402;2023-02-12T13:21:28;8.80;99.90
782;DHT22;374;52.568;13.402;2023-02-12T13:27:03;8.80;99.90
782;DHT22;374;52.568;13.402;2023-02-12T13:29:34;8.90;99.90
782;DHT22;374;52.568;13.402;2023-02-12T13:34:40;8.90;99.90
782;DHT22;374;52.568;13.402;2023-02-12T13:37:18;8.90;99.90
782;DHT22;374;52.568;13.402;2023-02-12T13:39:47;8.90;99.90
782;DHT22;374;52.568;13.402;2023-02-12T13:42:34;8.90;99.90
782;DHT22;374;52.568;13.402;2023-02-12T13:47:50;8.90;99.90
782;DHT22;374;52.568;13.402;2023-02-12T13:54:03;8.90;99.90
782;DHT22;374;52.568;13.402;2023-02-12T13:56:33;8.90;99.90
782;DHT22;374;52.568;13.402;2023-02-12T13:59:01;8.90;99.90
782;DHT22;374;52.568;13.402;2023-02-12T14:01:42;9.00;99.90
782;DHT22;374;52.568;13.402;2023-02-12T14:07:03;9.00;99.90
782;DHT22;374;52.568;13.402;2023-02-12T14:09:34;9.00;99.90
782;DHT22;374;52.568;13.402;2023-02-12T14:12:00;9.00;99.90
782;DHT22;374;52.568;13.402;2023-02-12T14:14:30;9.00;99.90
782;DHT22;374;52.568;13.402;2023-02-12T14:16:56;9.00;99.90
782;DHT22;374;52.568;13.402;2023-02-12T14:22:12;9.10;99.90
782;DHT22;374;52.568;13.402;2023-02-12T14:24:48;9.10;99.90
782;DHT22;374;52.568;13.402;2023-02-12T14:27:22;9.10;99.90
782;DHT22;374;52.568;13.402;2023-02-12T14:37:52;9.20;99.90
782;DHT22;374;52.568;13.402;2023-02-12T14:48:53;9.20;99.90
782;DHT22;374;52.568;13.402;2023-02-12T14:54:10;9.20;99.90
782;DHT22;374;52.568;13.402;2023-02-12T14:56:45;9.20;99.90
782;DHT22;374;52.568;13.402;2023-02-12T14:59:15;9.20;99.90
782;DHT22;374;52.568;13.402;2023-02-12T15:01:42;9.20;99.90
782;DHT22;374;52.568;13.402;2023-02-12T15:04:22;9.20;99.90
782;DHT22;374;52.568;13.402;2023-02-12T15:06:54;9.20;99.90
782;DHT22;374;52.568;13.402;2023-02-12T15:09:31;9.20;99.90
782;DHT22;374;52.568;13.402;2023-02-12T15:14:46;9.20;99.90
782;DHT22;374;52.568;13.402;2023-02-12T15:17:18;9.20;99.90
782;DHT22;374;52.568;13.402;2023-02-12T15:20:01;9.20;99.90
782;DHT22;374;52.568;13.402;2023-02-12T15:22:35;9.20;99.90
782;DHT22;374;52.568;13.402;2023-02-12T15:25:22;9.20;99.90
782;DHT22;374;52.568;13.402;2023-02-12T15:27:51;9.20;99.90
782;DHT22;374;52.568;13.402;2023-02-12T15:30:21;9.20;99.90
782;DHT22;374;52.568;13.402;2023-02-12T15:32:47;9.20;99.90
782;DHT22;374;52.568;13.402;2023-02-12T15:37:48;9.20;99.90
782;DHT22;374;52.568;13.402;2023-02-12T15:40:15;9.20;99.90
782;DHT22;374;52.568;13.402;2023-02-12T15:42:49;9.20;99.90
782;DHT22;374;52.568;13.402;2023-02-12T15:45:20;9.20;99.90
782;DHT22;374;52.568;13.402;2023-02-12T15:48:14;9.20;99.90
782;DHT22;374;52.568;13.402;2023-02-12T15:53:42;9.20;99.90
782;DHT22;374;52.568;13.402;2023-02-12T15:56:13;9.20;99.90
782;DHT22;374;52.568;13.402;2023-02-12T15:58:47;9.20;99.90
782;DHT22;374;52.568;13.402;2023-02-12T16:01:21;9.10;99.90
782;DHT22;374;52.568;13.402;2023-02-12T16:03:53;9.10;99.90
782;DHT22;374;52.568;13.402;2023-02-12T16:06:22;9.10;99.90
782;DHT22;374;52.568;13.402;2023-02-12T16:11:25;9.10;99.90
782;DHT22;374;52.568;13.402;2023-02-12T16:14:03;9.10;99.90
782;DHT22;374;52.568;13.402;2023-02-12T16:16:39;9.10;99.90
782;DHT22;374;52.568;13.402;2023-02-12T16:19:23;9.10;99.90
782;DHT22;374;52.568;13.402;2023-02-12T16:21:53;9.10;99.90
782;DHT22;374;52.568;13.402;2023-02-12T16:24:26;9.10;99.90
782;DHT22;374;52.568;13.402;2023-02-12T16:26:53;9.10;99.90
782;DHT22;374;52.568;13.402;2023-02-12T16:29:19;9.00;99.90
782;DHT22;374;52.568;13.402;2023-02-12T16:31:56;9.00;99.90
782;DHT22;374;52.568;13.402;2023-02-12T16:34:28;9.00;99.90
782;DHT22;374;52.568;13.402;2023-02-12T16:36:54;9.00;99.90
782;DHT22;374;52.568;13.402;2023-02-12T16:42:23;9.00;99.90
782;DHT22;374;52.568;13.402;2023-02-12T16:44:51;9.00;99.90
782;DHT22;374;52.568;13.402;2023-02-12T16:47:22;9.00;99.90
782;DHT22;374;52.568;13.402;2023-02-12T16:49:57;9.00;99.90
782;DHT22;374;52.568;13.402;2023-02-12T16:52:38;9.00;99.90
782;DHT22;374;52.568;13.402;2023-02-12T16:55:10;9.00;99.90
782;DHT22;374;52.568;13.402;2023-02-12T16:57:37;9.00;99.90
782;DHT22;374;52.568;13.402;2023-02-12T17:00:05;8.90;99.90
782;DHT22;374;52.568;13.402;2023-02-12T17:02:32;8.90;99.90
782;DHT22;374;52.568;13.402;2023-02-12T17:05:03;8.90;99.90
782;DHT22;374;52.568;13.402;2023-02-12T17:07:32;8.90;99.90
782;DHT22;374;52.568;13.402;2023-02-12T17:09:58;8.90;99.90
782;DHT22;374;52.568;13.402;2023-02-12T17:12:24;8.90;99.90
782;DHT22;374;52.568;13.402;2023-02-12T17:14:50;8.90;99.90
782;DHT22;374;52.568;13.402;2023-02-12T17:17:16;8.90;99.90
782;DHT22;374;52.568;13.402;2023-02-12T17:19:41;8.90;99.90
782;DHT22;374;52.568;13.402;2023-02-12T17:22:16;8.90;99.90
782;DHT22;374;52.568;13.402;2023-02-12T17:24:42;8.90;99.90
782;DHT22;374;52.568;13.402;2023-02-12T17:27:08;8.90;99.90
782;DHT22;374;52.568;13.402;2023-02-12T17:29:35;8.90;99.90
782;DHT22;374;52.568;13.402;2023-02-12T17:32:01;8.90;99.90
782;DHT22;374;52.568;13.402;2023-02-12T17:34:27;8.90;99.90
782;DHT22;374;52.568;13.402;2023-02-12T17:36:53;8.90;99.90
782;DHT22;374;52.568;13.402;2023-02-12T17:39:19;8.90;99.90
782;DHT22;374;52.568;13.402;2023-02-12T17:41:45;8.90;99.90
782;DHT22;374;52.568;13.402;2023-02-12T17:44:11;8.90;99.90
782;DHT22;374;52.568;13.402;2023-02-12T17:46:38;8.90;99.90
782;DHT22;374;52.568;13.402;2023-02-12T17:49:03;8.80;99.90
782;DHT22;374;52.568;13.402;2023-02-12T17:51:29;8.80;99.90
782;DHT22;374;52.568;13.402;2023-02-12T17:53:55;8.80;99.90
782;DHT22;374;52.568;13.402;2023-02-12T17:56:22;8.80;99.90
782;DHT22;374;52.568;13.402;2023-02-12T17:58:49;8.80;99.90
782;DHT22;374;52.568;13.402;2023-02-12T18:01:18;8.80;99.90
782;DHT22;374;52.568;13.402;2023-02-12T18:03:44;8.80;99.90
782;DHT22;374;52.568;13.402;2023-02-12T18:06:10;8.80;99.90
782;DHT22;374;52.568;13.402;2023-02-12T18:08:39;8.80;99.90
782;DHT22;374;52.568;13.402;2023-02-12T18:11:05;8.80;99.90
782;DHT22;374;52.568;13.402;2023-02-12T18:13:31;8.80;99.90
782;DHT22;374;52.568;13.402;2023-02-12T18:15:57;8.80;99.90
782;DHT22;374;52.568;13.402;2023-02-12T18:18:22;8.80;99.90
782;DHT22;374;52.568;13.402;2023-02-12T18:20:48;8.80;99.90
782;DHT22;374;52.568;13.402;2023-02-12T18:23:13;8.80;99.90
782;DHT22;374;52.568;13.402;2023-02-12T18:25:41;8.80;99.90
782;DHT22;374;52.568;13.402;2023-02-12T18:28:06;8.80;99.90
782;DHT22;374;52.568;13.402;2023-02-12T18:30:32;8.80;99.90
782;DHT22;374;52.568;13.402;2023-02-12T18:32:58;8.80;99.90
782;DHT22;374;52.568;13.402;2023-02-12T18:35:23;8.80;99.90
782;DHT22;374;52.568;13.402;2023-02-12T18:37:49;8.80;99.90
782;DHT22;374;52.568;13.402;2023-02-12T18:40:15;8.80;99.90
782;DHT22;374;52.568;13.402;2023-02-12T18:42:40;8.80;99.90
782;DHT22;374;52.568;13.402;2023-02-12T18:45:06;8.70;99.90
782;DHT22;374;52.568;13.402;2023-02-12T18:47:32;8.70;99.90
782;DHT22;374;52.568;13.402;2023-02-12T18:49:57;8.70;99.90
782;DHT22;374;52.568;13.402;2023-02-12T18:52:24;8.70;99.90
782;DHT22;374;52.568;13.402;2023-02-12T18:54:49;8.70;99.90
782;DHT22;374;52.568;13.402;2023-02-12T18:57:16;8.70;99.90
782;DHT22;374;52.568;13.402;2023-02-12T18:59:42;8.70;99.90
782;DHT22;374;52.568;13.402;2023-02-12T19:02:09;8.70;99.90
782;DHT22;374;52.568;13.402;2023-02-12T19:04:35;8.70;99.90
782;DHT22;374;52.568;13.402;2023-02-12T19:07:01;8.70;99.90
782;DHT22;374;52.568;13.402;2023-02-12T19:09:26;8.70;99.90
782;DHT22;374;52.568;13.402;2023-02-12T19:11:54;8.70;99.90
782;DHT22;374;52.568;13.402;2023-02-12T19:14:21;8.70;99.90